This is the latest recevied weather packets stored in our database for station/object S50APT-10. If no packets are shown the sender has not sent any weather packets the latest 10 day(s).
| Time | Temp. | Humidity | Pressure | Rain* | Wind** | Luminosity | Snow |
|---|---|---|---|---|---|---|---|
| 1778214534 | 10° C | 76% | 1019.4 hPa | - | - | - | - |
| 1778213633 | 8.89° C | 79% | 1019.4 hPa | - | - | - | - |
| 1778212733 | 8.89° C | 80% | 1019.2 hPa | - | - | - | - |
| 1778211832 | 8.89° C | 80% | 1019.3 hPa | - | - | - | - |
| 1778210931 | 8.89° C | 79% | 1019.2 hPa | - | - | - | - |
| 1778210031 | 8.89° C | 81% | 1019.2 hPa | - | - | - | - |
| 1778209140 | 8.89° C | 81% | 1019.1 hPa | - | - | - | - |
| 1778209130 | 8.89° C | 81% | 1019.1 hPa | - | - | - | - |
| 1778208229 | 8.89° C | 82% | 1019.1 hPa | - | - | - | - |
| 1778207359 | 8.33° C | 84% | 1019 hPa | - | - | - | - |
| 1778207358 | 8.33° C | 84% | 1019 hPa | - | - | - | - |
| 1778207328 | 8.33° C | 84% | 1019 hPa | - | - | - | - |
| 1778206426 | 8.33° C | 84% | 1019.1 hPa | - | - | - | - |
| 1778205525 | 8.33° C | 86% | 1019.1 hPa | - | - | - | - |
| 1778204624 | 8.33° C | 83% | 1018.9 hPa | - | - | - | - |
| 1778203724 | 8.33° C | 85% | 1018.9 hPa | - | - | - | - |
| 1778202824 | 8.89° C | 85% | 1018.9 hPa | - | - | - | - |
| 1778201924 | 8.89° C | 83% | 1018.8 hPa | - | - | - | - |
| 1778201023 | 9.44° C | 80% | 1018.8 hPa | - | - | - | - |
| 1778200122 | 9.44° C | 82% | 1018.8 hPa | - | - | - | - |
| 1778199222 | 9.44° C | 80% | 1018.8 hPa | - | - | - | - |
| 1778198321 | 10.56° C | 76% | 1018.9 hPa | - | - | - | - |
| 1778197420 | 11.67° C | 69% | 1019.1 hPa | - | - | - | - |
| 1778196533 | 10° C | 79% | 1019.2 hPa | - | - | - | - |
| 1778195616 | 9.44° C | 79% | 1019.3 hPa | - | - | - | - |
* Rain since midnight (hover to see other rain measurements)
** Current wind speed in m/s (hover to see current wind gust speed)